Time;durP1;ratioP1;P1;durP2;ratioP2;P2;SDS_P1;SDS_P2;PMS_P1;PMS_P2;Temp;Humidity;BMP_temperature;BMP_pressure;BME280_temperature;BME280_humidity;BME280_pressure;Samples;Min_cycle;Max_cycle;Signal;HPM_P1;HPM_P2
2023/02/25 00:00:31;;;;;;;2.80;2.00;;;;;;;12.00;48.82;94516.59;5052686;28;21274;-65
2023/02/25 00:02:58;;;;;;;2.10;1.20;;;;;;;11.62;49.51;94522.56;5053133;28;20532;-68
2023/02/25 00:05:26;;;;;;;0.50;0.50;;;;;;;11.43;50.32;94513.72;5052222;28;20476;-65
2023/02/25 00:07:56;;;;;;;2.20;1.77;;;;;;;11.77;50.01;94517.25;5052384;28;20447;-70
2023/02/25 00:10:23;;;;;;;2.17;2.07;;;;;;;11.67;50.12;94525.97;5051549;28;20446;-70
2023/02/25 00:12:50;;;;;;;2.20;1.37;;;;;;;11.28;50.99;94526.91;5053693;28;21165;-71
2023/02/25 00:15:17;;;;;;;3.10;1.30;;;;;;;12.04;49.73;94515.00;5055036;28;20441;-65
2023/02/25 00:17:44;;;;;;;0.77;0.77;;;;;;;12.00;49.01;94492.94;5064673;28;20457;-66
2023/02/25 00:20:12;;;;;;;1.60;1.50;;;;;;;11.90;48.75;94514.00;5062296;28;20479;-68
2023/02/25 00:22:39;;;;;;;6.37;2.70;;;;;;;11.60;49.95;94514.97;5054828;28;20446;-66
2023/02/25 00:25:08;;;;;;;8.87;2.30;;;;;;;11.31;50.65;94519.28;5052893;28;20520;-64
2023/02/25 00:27:36;;;;;;;2.00;1.10;;;;;;;11.53;50.57;94513.69;5056105;28;20849;-65
2023/02/25 00:30:04;;;;;;;0.27;0.23;;;;;;;11.69;49.39;94502.88;5050808;28;20466;-71
2023/02/25 00:32:31;;;;;;;0.70;0.33;;;;;;;11.46;49.83;94498.22;5065480;28;20505;-67
2023/02/25 00:34:58;;;;;;;0.70;0.63;;;;;;;11.48;49.66;94490.09;5050931;28;21162;-63
2023/02/25 00:37:25;;;;;;;0.30;0.30;;;;;;;11.44;49.65;94499.56;5050635;28;20442;-67
2023/02/25 00:39:51;;;;;;;0.80;0.80;;;;;;;11.32;50.22;94501.69;5050639;28;20894;-68
2023/02/25 00:42:19;;;;;;;1.90;1.53;;;;;;;11.55;49.66;94496.59;5056130;28;20442;-66
2023/02/25 00:44:47;;;;;;;1.43;1.40;;;;;;;11.46;49.50;94492.19;5050591;28;21035;-69
2023/02/25 00:47:17;;;;;;;0.83;0.83;;;;;;;11.21;50.30;94472.91;5065894;28;20442;-68
2023/02/25 00:49:46;;;;;;;0.33;0.33;;;;;;;10.60;52.69;94481.97;5070444;28;20516;-64
2023/02/25 00:52:14;;;;;;;2.00;1.80;;;;;;;11.15;50.94;94481.84;5052247;28;20864;-67
2023/02/25 00:54:42;;;;;;;2.90;2.70;;;;;;;10.80;51.09;94479.31;5050972;28;20451;-62
2023/02/25 00:57:09;;;;;;;1.70;1.60;;;;;;;10.79;51.91;94472.53;5062419;28;20461;-66
2023/02/25 00:59:35;;;;;;;1.10;0.90;;;;;;;11.00;50.63;94463.53;5051310;28;20949;-68
2023/02/25 01:02:03;;;;;;;1.53;1.43;;;;;;;11.41;49.87;94471.22;5061109;28;20493;-69
2023/02/25 01:04:30;;;;;;;0.60;0.60;;;;;;;10.56;52.21;94467.88;5049629;28;20462;-67
2023/02/25 01:06:58;;;;;;;0.73;0.70;;;;;;;11.21;50.63;94451.91;5057298;28;20439;-64
2023/02/25 01:09:25;;;;;;;1.33;0.37;;;;;;;11.37;50.05;94457.09;5055214;28;20189;-68
2023/02/25 01:11:52;;;;;;;1.53;1.47;;;;;;;11.64;48.85;94436.47;5062998;28;20435;-70
2023/02/25 01:14:25;;;;;;;0.97;0.97;;;;;;;11.75;48.38;94440.63;5050376;28;20526;-67
2023/02/25 01:16:56;;;;;;;0.70;0.70;;;;;;;11.89;48.23;94444.19;5054551;28;20972;-69
2023/02/25 01:19:25;;;;;;;14.33;2.00;;;;;;;11.90;48.06;94440.50;5051014;28;20478;-65
2023/02/25 01:21:55;;;;;;;4.33;1.90;;;;;;;11.86;47.98;94436.88;5056421;28;20875;-67
2023/02/25 01:24:31;;;;;;;0.73;0.73;;;;;;;11.90;48.57;94443.91;5049597;28;20442;-70
2023/02/25 01:27:00;;;;;;;0.77;0.77;;;;;;;11.78;48.34;94421.69;5053273;28;20439;-70
2023/02/25 01:29:38;;;;;;;2.10;1.70;;;;;;;11.84;48.08;94446.88;5049007;28;20447;-64
2023/02/25 01:32:09;;;;;;;0.70;0.70;;;;;;;11.52;48.77;94443.88;5049717;28;20447;-71
2023/02/25 01:34:38;;;;;;;1.00;0.73;;;;;;;11.68;48.18;94434.88;5050369;28;20442;-67
2023/02/25 01:37:07;;;;;;;0.83;0.83;;;;;;;11.73;48.25;94424.38;5062412;28;20434;-65
2023/02/25 01:39:38;;;;;;;2.00;0.60;;;;;;;11.35;49.14;94432.97;5050256;28;20449;-63
2023/02/25 01:42:11;;;;;;;1.23;1.20;;;;;;;11.56;48.76;94440.44;5062065;28;20487;-69
2023/02/25 01:45:16;;;;;;;0.43;0.43;;;;;;;11.56;48.90;94434.41;5051482;28;20969;-67
2023/02/25 01:47:57;;;;;;;0.20;0.20;;;;;;;11.35;49.42;94440.84;5066576;28;20458;-65
2023/02/25 01:50:27;;;;;;;1.67;1.47;;;;;;;11.42;49.06;94436.88;5051831;28;20447;-67
2023/02/25 01:52:58;;;;;;;0.20;0.20;;;;;;;11.65;49.03;94438.84;5061257;28;20465;-67
2023/02/25 01:55:25;;;;;;;1.03;1.03;;;;;;;11.08;50.25;94434.16;5050077;28;20454;-67
2023/02/25 01:57:52;;;;;;;0.10;0.10;;;;;;;10.90;50.34;94437.38;5056369;28;20607;-66
2023/02/25 02:00:21;;;;;;;0.40;0.40;;;;;;;11.42;49.41;94428.22;5051228;28;20501;-66
2023/02/25 02:02:49;;;;;;;0.15;0.15;;;;;;;11.58;49.00;94432.31;5061796;28;20192;-68
2023/02/25 02:05:16;;;;;;;0.50;0.50;;;;;;;11.58;48.96;94432.31;5050665;28;20224;-68
2023/02/25 02:07:43;;;;;;;0.00;0.00;;;;;;;11.52;49.16;94433.38;5052243;28;20565;-69
2023/02/25 02:10:10;;;;;;;4.67;3.53;;;;;;;11.44;49.61;94429.50;5049266;28;20984;-68
2023/02/25 02:12:41;;;;;;;0.73;0.73;;;;;;;11.59;49.52;94431.22;5048637;28;20449;-68
2023/02/25 02:15:13;;;;;;;1.23;1.13;;;;;;;11.75;48.77;94422.25;5050026;28;20442;-64
2023/02/25 02:17:57;;;;;;;2.60;0.87;;;;;;;11.77;48.58;94414.91;5061677;28;20489;-68
2023/02/25 02:20:32;;;;;;;0.23;0.23;;;;;;;11.65;48.76;94411.81;5049560;28;20479;-63
2023/02/25 02:23:21;;;;;;;0.10;0.10;;;;;;;11.79;48.35;94408.28;5060239;28;20453;-66
2023/02/25 02:26:32;;;;;;;0.03;0.03;;;;;;;11.61;48.46;94416.00;5048781;28;21178;-67
2023/02/25 02:29:40;;;;;;;0.40;0.32;;;;;;;11.75;48.87;94404.66;5048747;28;20463;-65
2023/02/25 02:32:19;;;;;;;0.60;0.60;;;;;;;11.65;48.32;94394.25;5057335;28;20200;-68
2023/02/25 02:35:08;;;;;;;0.20;0.20;;;;;;;11.46;48.95;94398.53;5048838;28;20478;-66
2023/02/25 02:37:43;;;;;;;4.17;1.60;;;;;;;11.58;48.39;94398.19;5057214;28;20443;-67
2023/02/25 02:40:34;;;;;;;17.93;0.83;;;;;;;11.48;48.82;94390.41;5047963;28;20530;-67
2023/02/25 02:43:14;;;;;;;0.30;0.30;;;;;;;11.68;48.55;94395.50;5056673;28;20447;-64
2023/02/25 02:45:53;;;;;;;1.00;0.97;;;;;;;11.54;48.90;94395.34;5047085;28;20573;-60
2023/02/25 02:48:28;;;;;;;0.30;0.30;;;;;;;11.62;48.53;94386.09;5053610;28;20475;-64
2023/02/25 02:51:00;;;;;;;1.43;1.33;;;;;;;11.72;48.29;94386.03;5049449;28;20840;-68
2023/02/25 02:53:40;;;;;;;1.07;1.07;;;;;;;11.41;48.83;94368.91;5050767;28;22839;-64
2023/02/25 02:56:13;;;;;;;5.53;0.83;;;;;;;11.34;48.88;94374.47;5048632;28;20486;-66
2023/02/25 02:58:56;;;;;;;0.10;0.10;;;;;;;11.40;48.75;94368.16;5049433;28;20573;-70
2023/02/25 03:01:31;;;;;;;1.30;1.07;;;;;;;11.26;48.93;94345.44;5048855;28;20480;-70
2023/02/25 03:04:03;;;;;;;0.43;0.43;;;;;;;11.01;49.37;94364.69;5049165;28;20980;-67
2023/02/25 03:06:43;;;;;;;0.67;0.67;;;;;;;11.29;49.23;94358.00;5049949;28;20481;-66
2023/02/25 03:09:18;;;;;;;0.70;0.70;;;;;;;11.58;48.32;94362.25;5055369;28;20447;-67
2023/02/25 03:11:45;;;;;;;0.60;0.60;;;;;;;11.52;48.25;94367.78;5057599;28;20473;-72
2023/02/25 03:14:13;;;;;;;0.63;0.63;;;;;;;11.63;47.75;94361.41;5052009;28;20446;-70
2023/02/25 03:16:49;;;;;;;4.63;1.53;;;;;;;11.65;47.71;94364.56;5052528;28;20442;-66
2023/02/25 03:19:22;;;;;;;2.93;1.23;;;;;;;11.61;47.88;94358.28;5049792;28;20493;-69
2023/02/25 03:21:59;;;;;;;0.00;0.00;;;;;;;9.94;51.88;94386.22;5053623;28;20880;-70
2023/02/25 03:24:34;;;;;;;2.43;1.80;;;;;;;10.63;50.05;94373.25;5047070;28;20450;-70
2023/02/25 03:27:27;;;;;;;0.63;0.63;;;;;;;10.96;49.42;94378.63;5055248;28;20815;-68
2023/02/25 03:30:16;;;;;;;2.25;1.70;;;;;;;11.29;48.79;94376.34;5048134;28;20446;-68
2023/02/25 03:32:52;;;;;;;0.40;0.40;;;;;;;11.26;49.18;94379.53;5055030;28;20262;-68
2023/02/25 03:35:21;;;;;;;4.78;1.17;;;;;;;11.29;48.52;94365.84;5047122;28;20291;-67
2023/02/25 03:37:54;;;;;;;0.43;0.43;;;;;;;11.29;48.42;94366.66;5052864;28;20668;-66
2023/02/25 03:40:23;;;;;;;0.40;0.40;;;;;;;11.09;48.98;94361.53;5049814;28;20463;-66
2023/02/25 03:43:00;;;;;;;0.47;0.47;;;;;;;11.31;48.37;94372.41;5051998;28;20439;-64
2023/02/25 03:45:30;;;;;;;2.72;1.58;;;;;;;11.26;48.80;94371.66;5046725;28;20227;-69
2023/02/25 03:47:57;;;;;;;0.30;0.30;;;;;;;11.24;48.44;94370.06;5056194;28;20196;-67
2023/02/25 03:50:32;;;;;;;0.10;0.10;;;;;;;11.23;48.39;94368.50;5051933;28;20315;-67
2023/02/25 03:53:03;;;;;;;17.80;1.70;;;;;;;11.31;48.44;94358.50;5063351;28;20508;-63
2023/02/25 03:55:51;;;;;;;1.25;1.15;;;;;;;10.60;49.41;94366.72;5067564;28;20917;-69
2023/02/25 03:58:18;;;;;;;0.53;0.50;;;;;;;10.81;49.11;94360.34;5067092;28;20287;-65
2023/02/25 04:00:48;;;;;;;1.50;1.40;;;;;;;11.10;48.38;94358.63;5051224;28;20462;-64
2023/02/25 04:03:15;;;;;;;0.20;0.20;;;;;;;11.03;48.37;94355.53;5065461;28;20210;-69
2023/02/25 04:05:42;;;;;;;1.93;1.53;;;;;;;10.96;48.81;94352.41;5060117;28;20224;-70
2023/02/25 04:08:14;;;;;;;1.70;1.07;;;;;;;11.15;48.54;94328.94;5059450;28;20851;-69
2023/02/25 04:10:45;;;;;;;0.27;0.27;;;;;;;10.71;49.11;94339.41;5051454;28;20529;-65
2023/02/25 04:13:14;;;;;;;1.17;1.08;;;;;;;11.05;48.36;94361.28;5058071;28;20505;-68
2023/02/25 04:15:42;;;;;;;0.63;0.63;;;;;;;11.05;48.70;94361.28;5051418;28;20204;-67
2023/02/25 04:18:09;;;;;;;0.33;0.33;;;;;;;11.18;48.31;94352.78;5061708;28;20454;-63
2023/02/25 04:20:35;;;;;;;0.07;0.07;;;;;;;11.00;48.07;94363.91;5055400;28;20931;-65
2023/02/25 04:23:04;;;;;;;0.20;0.20;;;;;;;11.05;48.48;94361.28;5055944;28;20466;-69
2023/02/25 04:25:33;;;;;;;3.73;1.20;;;;;;;11.22;48.19;94366.19;5051720;28;20234;-68
2023/02/25 04:27:59;;;;;;;5.45;1.75;;;;;;;10.76;47.97;94294.09;5054072;28;20475;-71
2023/02/25 04:30:27;;;;;;;0.50;0.50;;;;;;;11.18;48.23;94360.66;5051185;28;20286;-63
2023/02/25 04:32:54;;;;;;;0.03;0.03;;;;;;;11.11;48.67;94357.56;5051726;28;20839;-69
2023/02/25 04:35:22;;;;;;;0.17;0.17;;;;;;;11.06;48.26;94348.94;5051082;28;20208;-64
2023/02/25 04:37:49;;;;;;;2.83;1.47;;;;;;;11.03;48.03;94346.88;5061086;28;20446;-67
2023/02/25 04:40:18;;;;;;;1.25;1.17;;;;;;;11.07;48.16;94347.91;5054191;28;20801;-70
2023/02/25 04:42:46;;;;;;;0.83;0.60;;;;;;;10.94;48.48;94328.31;5060471;28;20227;-63
2023/02/25 04:45:14;;;;;;;0.57;0.57;;;;;;;11.15;47.73;94329.75;5052765;28;20443;-70
2023/02/25 04:47:41;;;;;;;7.15;2.20;;;;;;;11.06;47.89;94331.38;5059367;28;20820;-68
2023/02/25 04:50:09;;;;;;;0.52;0.52;;;;;;;10.95;48.42;94335.09;5052826;28;20197;-69
2023/02/25 04:52:35;;;;;;;0.40;0.38;;;;;;;10.76;48.91;94315.84;5057545;28;20736;-64
2023/02/25 04:55:03;;;;;;;0.57;0.40;;;;;;;10.78;48.62;94308.50;5052242;28;20211;-73
2023/02/25 04:57:30;;;;;;;0.20;0.20;;;;;;;10.79;48.43;94315.28;5055970;28;20760;-69
2023/02/25 04:59:57;;;;;;;1.45;0.95;;;;;;;10.57;49.44;94307.00;5055760;28;20208;-67
2023/02/25 05:02:24;;;;;;;0.30;0.30;;;;;;;10.65;49.52;94303.84;5054292;28;20196;-62
2023/02/25 05:04:52;;;;;;;1.80;1.60;;;;;;;10.55;49.26;94310.94;5051408;28;20283;-66
2023/02/25 05:07:18;;;;;;;0.95;0.95;;;;;;;10.46;49.13;94300.25;5052464;28;20473;-64
2023/02/25 05:09:46;;;;;;;0.57;0.57;;;;;;;10.46;50.00;94279.28;5051193;28;20303;-69
2023/02/25 05:12:13;;;;;;;1.43;1.40;;;;;;;9.68;51.46;94309.59;5056294;28;20287;-66
2023/02/25 05:14:40;;;;;;;0.47;0.47;;;;;;;8.94;54.67;94300.69;5051259;28;20600;-67
2023/02/25 05:17:07;;;;;;;0.50;0.50;;;;;;;9.90;51.64;94288.34;5053055;28;20215;-69
2023/02/25 05:19:35;;;;;;;1.33;0.85;;;;;;;9.99;50.86;94278.91;5062197;28;20237;-70
2023/02/25 05:22:02;;;;;;;0.30;0.30;;;;;;;9.94;50.34;94305.09;5050654;28;20205;-70
2023/02/25 05:24:28;;;;;;;1.77;1.67;;;;;;;9.14;52.69;94325.00;5064051;28;20199;-73
2023/02/25 05:26:55;;;;;;;2.78;2.58;;;;;;;9.57;51.86;94318.50;5055753;28;20231;-63
2023/02/25 05:29:22;;;;;;;0.85;0.85;;;;;;;10.07;50.74;94307.94;5053202;28;20197;-71
2023/02/25 05:31:50;;;;;;;1.67;1.55;;;;;;;10.09;50.27;94307.72;5050094;28;20197;-68
2023/02/25 05:34:17;;;;;;;0.38;0.38;;;;;;;10.06;50.54;94337.00;5051822;28;20706;-64
2023/02/25 05:36:45;;;;;;;2.20;1.05;;;;;;;8.63;54.71;94328.53;5052046;28;20208;-69
2023/02/25 05:39:13;;;;;;;3.70;0.45;;;;;;;9.82;51.80;94312.44;5072636;28;20192;-66
2023/02/25 05:41:40;;;;;;;6.25;3.35;;;;;;;10.00;51.20;94327.56;5060777;28;20637;-65
2023/02/25 05:44:09;;;;;;;7.05;4.32;;;;;;;10.15;50.68;94319.72;5062501;28;20205;-65
2023/02/25 05:46:36;;;;;;;1.08;1.08;;;;;;;10.52;49.79;94325.38;5053160;28;20916;-67
2023/02/25 05:49:03;;;;;;;2.30;2.17;;;;;;;10.59;49.91;94362.53;5060260;28;20242;-71
2023/02/25 05:51:30;;;;;;;0.30;0.30;;;;;;;9.65;52.11;94359.03;5049914;28;20715;-69
2023/02/25 05:53:57;;;;;;;0.93;0.93;;;;;;;8.48;56.22;94372.91;5058993;28;20207;-70
2023/02/25 05:56:24;;;;;;;1.40;1.30;;;;;;;9.63;53.28;94371.59;5061873;28;20608;-68
2023/02/25 05:58:52;;;;;;;2.58;0.60;;;;;;;10.23;51.44;94373.38;5057751;28;20188;-62
2023/02/25 06:01:23;;;;;;;2.60;2.40;;;;;;;9.04;54.26;94377.25;5054191;28;20195;-68
2023/02/25 06:03:57;;;;;;;4.68;2.03;;;;;;;9.55;53.44;94359.00;5054687;28;20222;-69
2023/02/25 06:06:27;;;;;;;1.10;1.02;;;;;;;10.41;51.54;94365.75;5049734;28;20746;-65
2023/02/25 06:08:54;;;;;;;7.10;3.20;;;;;;;10.58;51.77;94376.69;5051472;28;20988;-66
2023/02/25 06:11:26;;;;;;;3.15;2.78;;;;;;;10.78;51.45;94375.84;5047812;28;20279;-67
2023/02/25 06:13:55;;;;;;;1.65;1.55;;;;;;;10.23;52.05;94382.03;5050891;28;20695;-65
2023/02/25 06:16:24;;;;;;;0.65;0.65;;;;;;;10.73;50.68;94378.47;5049286;28;20214;-64
2023/02/25 06:18:51;;;;;;;1.38;1.30;;;;;;;10.87;50.30;94390.72;5062470;28;20251;-69
2023/02/25 06:21:19;;;;;;;2.65;2.45;;;;;;;11.07;50.15;94376.75;5050366;28;20197;-63
2023/02/25 06:23:48;;;;;;;1.75;1.30;;;;;;;11.16;50.20;94362.78;5060097;28;20196;-66
2023/02/25 06:26:16;;;;;;;4.10;3.60;;;;;;;11.30;49.62;94362.16;5049172;28;20706;-69
2023/02/25 06:28:43;;;;;;;1.60;1.50;;;;;;;11.43;49.34;94356.31;5060323;28;20443;-68
2023/02/25 06:31:15;;;;;;;2.25;1.25;;;;;;;11.48;49.50;94366.78;5051369;28;20497;-68
2023/02/25 06:33:42;;;;;;;1.67;1.33;;;;;;;11.59;49.49;94355.13;5060367;28;20207;-66
2023/02/25 06:36:09;;;;;;;0.60;0.60;;;;;;;11.43;49.55;94356.31;5049652;28;20202;-65
2023/02/25 06:38:36;;;;;;;1.27;1.17;;;;;;;11.62;49.66;94365.91;5055532;28;20451;-69
2023/02/25 06:41:14;;;;;;;1.40;1.30;;;;;;;11.82;49.32;94370.22;5050234;28;20442;-65
2023/02/25 06:43:42;;;;;;;0.53;0.53;;;;;;;11.94;48.84;94362.75;5055802;28;20439;-71
2023/02/25 06:46:12;;;;;;;0.30;0.30;;;;;;;12.12;48.86;94348.94;5051723;28;20570;-69
2023/02/25 06:48:39;;;;;;;1.33;1.17;;;;;;;12.18;48.86;94338.13;5055944;28;21056;-65
2023/02/25 06:51:08;;;;;;;1.17;0.63;;;;;;;11.77;49.63;94352.66;5051397;28;20451;-65
2023/02/25 06:53:36;;;;;;;1.80;1.17;;;;;;;12.29;48.49;94333.53;5052204;28;20435;-67
2023/02/25 06:56:03;;;;;;;3.87;2.80;;;;;;;12.45;48.62;94327.06;5048409;28;21212;-71
2023/02/25 06:58:30;;;;;;;0.07;0.07;;;;;;;12.60;47.65;94334.78;5055707;28;20450;-64
2023/02/25 07:00:57;;;;;;;1.43;1.17;;;;;;;12.78;47.44;94326.13;5048883;28;20508;-66
2023/02/25 07:03:24;;;;;;;0.93;0.93;;;;;;;12.96;47.04;94320.09;5055326;28;20454;-70
2023/02/25 07:05:51;;;;;;;2.00;1.90;;;;;;;13.11;47.00;94308.63;5048487;28;20450;-66
2023/02/25 07:08:18;;;;;;;0.50;0.50;;;;;;;13.24;47.32;94307.91;5053137;28;20452;-68
2023/02/25 07:10:45;;;;;;;0.70;0.70;;;;;;;12.96;47.54;94312.22;5047249;28;20961;-69
2023/02/25 07:13:12;;;;;;;0.87;0.87;;;;;;;12.38;48.67;94295.09;5051671;28;20874;-64
2023/02/25 07:15:39;;;;;;;15.83;2.13;;;;;;;13.08;47.39;94283.66;5048479;28;20478;-68
2023/02/25 07:18:05;;;;;;;4.43;2.03;;;;;;;13.27;46.67;94291.56;5050010;28;20477;-64
2023/02/25 07:20:32;;;;;;;2.70;2.10;;;;;;;13.40;46.76;94277.66;5050542;28;20467;-70
2023/02/25 07:23:03;;;;;;;3.40;1.60;;;;;;;13.64;46.57;94277.56;5058272;28;20482;-68
2023/02/25 07:25:30;;;;;;;1.70;1.00;;;;;;;13.66;46.81;94280.69;5064933;28;20451;-61
2023/02/25 07:27:57;;;;;;;7.80;1.67;;;;;;;13.75;45.93;94282.38;5071631;28;20474;-66
2023/02/25 07:30:23;;;;;;;0.90;0.73;;;;;;;13.54;45.82;94269.84;5051752;28;20812;-67
2023/02/25 07:32:51;;;;;;;2.73;1.80;;;;;;;13.67;45.51;94264.59;5052900;28;20470;-66
2023/02/25 07:35:19;;;;;;;0.73;0.53;;;;;;;13.68;45.37;94239.06;5051788;28;20513;-71
2023/02/25 07:37:46;;;;;;;7.03;1.90;;;;;;;13.98;45.22;94243.75;5049912;28;20453;-66
2023/02/25 07:40:13;;;;;;;5.30;1.77;;;;;;;13.91;44.08;94238.88;5050913;28;20819;-68
2023/02/25 07:42:40;;;;;;;4.33;2.37;;;;;;;13.52;44.87;94240.38;5052536;28;20435;-69
2023/02/25 07:45:09;;;;;;;1.03;0.97;;;;;;;13.34;45.23;94233.31;5057159;28;20454;-62
2023/02/25 07:47:37;;;;;;;0.53;0.37;;;;;;;13.73;44.89;94221.31;5050561;28;20938;-67
2023/02/25 07:50:05;;;;;;;1.67;1.43;;;;;;;13.94;45.50;94211.97;5055780;28;20447;-63
2023/02/25 07:52:35;;;;;;;0.27;0.27;;;;;;;14.09;44.82;94214.31;5050025;28;20446;-67
2023/02/25 07:55:03;;;;;;;0.77;0.77;;;;;;;14.06;44.19;94219.38;5053620;28;20530;-69
2023/02/25 07:57:31;;;;;;;0.20;0.20;;;;;;;13.81;44.76;94222.50;5050114;28;20489;-66
2023/02/25 07:59:58;;;;;;;18.53;2.93;;;;;;;14.17;43.65;94204.94;5052273;28;20453;-69
2023/02/25 08:02:24;;;;;;;0.10;0.10;;;;;;;14.31;43.78;94189.94;5050059;28;20443;-70
2023/02/25 08:04:51;;;;;;;1.43;1.23;;;;;;;14.55;43.96;94213.41;5052220;28;20443;-65
2023/02/25 08:07:19;;;;;;;1.53;1.30;;;;;;;14.41;43.32;94202.91;5050224;28;21063;-72
2023/02/25 08:09:46;;;;;;;0.10;0.10;;;;;;;14.34;43.65;94193.84;5051829;28;20480;-66
2023/02/25 08:12:12;;;;;;;0.40;0.40;;;;;;;14.63;43.59;94192.41;5050313;28;20497;-67
2023/02/25 08:14:39;;;;;;;0.80;0.80;;;;;;;14.78;43.22;94178.88;5051826;28;20949;-66
2023/02/25 08:17:06;;;;;;;0.33;0.33;;;;;;;14.13;42.95;94198.69;5060560;28;21027;-65
2023/02/25 08:19:33;;;;;;;6.27;1.33;;;;;;;14.84;42.57;94198.78;5059328;28;20478;-69
2023/02/25 08:22:00;;;;;;;0.30;0.30;;;;;;;14.99;42.23;94193.19;5047729;28;20470;-68
2023/02/25 08:25:00;;;;;;;0.10;0.10;;;;;;;14.84;43.01;94184.81;5051114;28;20435;-71
2023/02/25 08:27:27;;;;;;;0.40;0.40;;;;;;;15.02;43.15;94192.56;5046870;28;20540;-65
2023/02/25 08:29:55;;;;;;;0.40;0.40;;;;;;;15.12;42.58;94173.88;5050693;28;20466;-69
2023/02/25 08:32:24;;;;;;;0.10;0.10;;;;;;;15.06;42.83;94185.63;5049238;28;20450;-64
2023/02/25 08:34:52;;;;;;;1.93;1.33;;;;;;;15.24;42.77;94171.47;5050111;28;21115;-67
2023/02/25 08:37:20;;;;;;;1.13;0.93;;;;;;;15.25;42.21;94156.41;5049301;28;20447;-67
2023/02/25 08:39:47;;;;;;;2.10;1.43;;;;;;;15.40;43.04;94176.38;5050592;28;20846;-69
2023/02/25 08:42:17;;;;;;;0.47;0.43;;;;;;;15.11;42.31;94164.38;5050235;28;20941;-68
2023/02/25 08:44:44;;;;;;;0.63;0.63;;;;;;;15.31;42.91;94165.00;5052433;28;20969;-68
2023/02/25 08:47:11;;;;;;;1.17;1.17;;;;;;;15.51;43.05;94156.59;5047917;28;20482;-68
2023/02/25 08:49:39;;;;;;;5.23;1.57;;;;;;;15.52;41.79;94147.56;5052199;28;20443;-67
2023/02/25 08:52:10;;;;;;;1.13;1.10;;;;;;;15.34;42.31;94164.38;5049061;28;20462;-71
2023/02/25 08:54:38;;;;;;;0.83;0.77;;;;;;;15.42;42.56;94134.66;5051512;28;20450;-68
2023/02/25 08:57:05;;;;;;;2.17;1.60;;;;;;;15.63;41.88;94130.38;5049520;28;20480;-70
2023/02/25 08:59:34;;;;;;;2.77;1.33;;;;;;;15.65;42.85;94144.06;5053967;28;21128;-70
2023/02/25 09:02:05;;;;;;;1.60;1.50;;;;;;;15.58;42.81;94138.44;5051513;28;20965;-66
2023/02/25 09:04:32;;;;;;;1.53;1.43;;;;;;;15.53;42.68;94165.00;5053042;28;20903;-69
2023/02/25 09:07:02;;;;;;;5.80;3.17;;;;;;;15.43;41.95;94152.03;5048716;28;21438;-66
2023/02/25 09:09:28;;;;;;;0.30;0.30;;;;;;;15.37;42.96;94117.03;5053228;28;20444;-66
2023/02/25 09:11:55;;;;;;;3.43;1.70;;;;;;;15.39;42.70;94145.75;5048952;28;20457;-66
2023/02/25 09:14:22;;;;;;;7.43;4.60;;;;;;;15.66;43.13;94156.16;5050625;28;20437;-64
2023/02/25 09:16:49;;;;;;;6.80;5.90;;;;;;;15.74;42.87;94142.22;5050613;28;20453;-65
2023/02/25 09:19:17;;;;;;;1.60;1.50;;;;;;;15.54;42.76;94142.78;5055935;28;20499;-63
2023/02/25 09:21:46;;;;;;;0.93;0.93;;;;;;;15.71;42.20;94132.28;5050119;28;20797;-69
2023/02/25 09:24:15;;;;;;;1.30;1.20;;;;;;;15.43;42.72;94121.13;5049726;28;20526;-70
2023/02/25 09:26:42;;;;;;;1.70;1.13;;;;;;;15.57;42.28;94132.38;5048973;28;20471;-64
2023/02/25 09:29:09;;;;;;;1.60;0.60;;;;;;;15.16;43.07;94153.69;5051543;28;20439;-66
2023/02/25 09:31:36;;;;;;;2.10;1.50;;;;;;;15.27;43.78;94112.78;5053036;28;21149;-73
2023/02/25 09:34:06;;;;;;;2.17;0.83;;;;;;;15.30;43.02;94105.34;5054964;28;20449;-71
2023/02/25 09:36:33;;;;;;;4.77;2.07;;;;;;;15.22;43.75;94120.06;5056224;28;20486;-69
2023/02/25 09:39:02;;;;;;;1.40;1.30;;;;;;;15.58;43.54;94114.69;5066068;28;20461;-70
2023/02/25 09:41:47;;;;;;;0.50;0.50;;;;;;;15.60;43.23;94115.16;5059223;28;20474;-68
2023/02/25 09:44:21;;;;;;;3.30;1.90;;;;;;;15.48;43.66;94091.16;5054163;28;20438;-66
2023/02/25 09:47:12;;;;;;;0.53;0.53;;;;;;;15.10;43.56;94069.72;5052876;28;20570;-65
2023/02/25 09:49:45;;;;;;;0.73;0.73;;;;;;;14.55;43.98;94079.75;5057170;28;20447;-69
2023/02/25 09:52:27;;;;;;;0.30;0.30;;;;;;;15.20;43.87;94043.84;5049686;28;20512;-69
2023/02/25 09:55:05;;;;;;;8.27;5.00;;;;;;;15.10;41.78;94064.44;5054604;28;20470;-67
2023/02/25 09:57:37;;;;;;;5.60;3.87;;;;;;;15.35;42.14;94066.41;5050944;28;20489;-67
2023/02/25 10:00:16;;;;;;;0.80;0.80;;;;;;;15.67;41.83;94067.97;5053502;28;20530;-64
2023/02/25 10:02:54;;;;;;;0.80;0.80;;;;;;;15.86;41.25;94074.53;5049101;28;20443;-61
2023/02/25 10:05:25;;;;;;;1.27;1.17;;;;;;;15.68;41.78;94057.06;5051347;28;20443;-69
2023/02/25 10:08:00;;;;;;;0.40;0.40;;;;;;;15.34;42.11;94037.69;5049871;28;20475;-69
2023/02/25 10:10:40;;;;;;;2.73;1.47;;;;;;;15.67;41.29;94067.97;5075024;28;20962;-68
2023/02/25 10:13:30;;;;;;;5.03;1.37;;;;;;;15.85;41.08;94043.13;5050576;28;21119;-65
2023/02/25 10:16:09;;;;;;;3.13;2.07;;;;;;;15.93;39.53;94040.50;5065663;28;20458;-71
2023/02/25 10:19:20;;;;;;;0.70;0.70;;;;;;;15.49;40.88;94050.50;5050685;28;20581;-66
2023/02/25 10:22:16;;;;;;;0.47;0.47;;;;;;;16.23;39.62;94015.03;5081096;28;20448;-65
2023/02/25 10:24:49;;;;;;;3.30;2.77;;;;;;;16.27;39.87;94031.84;5064872;28;20523;-67
2023/02/25 10:27:28;;;;;;;1.40;1.30;;;;;;;16.48;39.61;94024.06;5053225;28;20482;-63
2023/02/25 10:30:07;;;;;;;16.33;6.27;;;;;;;16.38;39.61;94016.44;5058571;28;20480;-66
2023/02/25 10:32:36;;;;;;;1.50;1.47;;;;;;;16.46;39.48;94011.13;5052980;28;20442;-67
2023/02/25 10:35:35;;;;;;;3.60;1.93;;;;;;;16.49;38.51;93994.69;5058420;28;20469;-66
2023/02/25 10:38:02;;;;;;;1.00;0.90;;;;;;;16.17;38.41;93993.28;5053282;28;20449;-69
2023/02/25 10:40:29;;;;;;;0.80;0.70;;;;;;;16.63;38.50;93983.91;5058850;28;20500;-65
2023/02/25 10:43:08;;;;;;;0.33;0.33;;;;;;;16.38;37.98;93988.13;5050097;28;20548;-71
2023/02/25 10:45:39;;;;;;;0.60;0.60;;;;;;;16.46;36.96;93982.03;5056670;28;20963;-73
2023/02/25 10:48:15;;;;;;;0.77;0.77;;;;;;;16.29;37.53;93974.16;5053550;28;20516;-69
2023/02/25 10:50:42;;;;;;;3.17;2.00;;;;;;;16.60;36.84;93984.56;5054770;28;20500;-69
2023/02/25 10:53:16;;;;;;;0.27;0.27;;;;;;;16.26;37.78;93960.78;5068671;28;20450;-63
2023/02/25 10:55:43;;;;;;;3.83;1.03;;;;;;;15.91;38.62;93975.88;5064513;28;20569;-67
2023/02/25 10:58:37;;;;;;;1.50;1.43;;;;;;;16.68;38.25;93968.66;5057020;28;20493;-69
2023/02/25 11:01:17;;;;;;;2.33;2.13;;;;;;;16.70;37.76;93969.13;5060289;28;20442;-66
2023/02/25 11:03:46;;;;;;;1.37;1.30;;;;;;;16.89;37.77;93966.91;5060191;28;20438;-66
2023/02/25 11:06:21;;;;;;;4.00;2.10;;;;;;;16.88;37.82;93938.88;5059616;28;20508;-70
2023/02/25 11:08:51;;;;;;;3.10;2.07;;;;;;;16.89;36.27;93951.03;5048567;28;20490;-66
2023/02/25 11:11:29;;;;;;;1.33;1.23;;;;;;;17.00;35.58;93931.06;5058149;28;20739;-67
2023/02/25 11:14:05;;;;;;;0.50;0.50;;;;;;;17.23;35.42;93940.28;5048601;28;20446;-65
2023/02/25 11:16:38;;;;;;;0.30;0.30;;;;;;;16.44;37.85;93933.97;5056987;28;20468;-69
2023/02/25 11:19:34;;;;;;;0.50;0.50;;;;;;;17.01;36.92;93932.59;5048334;28;20517;-70
2023/02/25 11:22:16;;;;;;;3.37;2.03;;;;;;;16.36;37.18;93926.88;5052098;28;20465;-64
2023/02/25 11:24:45;;;;;;;0.47;0.47;;;;;;;16.85;36.49;93923.63;5062748;28;20459;-67
2023/02/25 11:27:45;;;;;;;2.27;0.90;;;;;;;17.07;35.03;93915.47;5051106;28;20539;-66
2023/02/25 11:30:12;;;;;;;2.43;1.10;;;;;;;17.17;34.77;93893.13;5062012;28;20817;-65
2023/02/25 11:32:52;;;;;;;1.10;1.00;;;;;;;17.53;33.94;93895.28;5052380;28;20585;-67
2023/02/25 11:35:28;;;;;;;0.10;0.10;;;;;;;17.53;33.05;93900.56;5056528;28;20963;-64
2023/02/25 11:38:12;;;;;;;0.77;0.67;;;;;;;17.48;32.77;93874.28;5048855;28;20442;-65
2023/02/25 11:40:44;;;;;;;0.17;0.17;;;;;;;17.97;32.60;93895.38;5053419;28;20473;-67
2023/02/25 11:43:18;;;;;;;0.50;0.37;;;;;;;18.08;31.75;93911.69;5047933;28;20451;-67
2023/02/25 11:46:00;;;;;;;1.00;0.97;;;;;;;17.52;32.47;93920.97;5052158;28;20438;-67
2023/02/25 11:48:46;;;;;;;2.13;1.90;;;;;;;17.57;34.33;93910.19;5047081;28;20569;-65
2023/02/25 11:51:23;;;;;;;0.77;0.77;;;;;;;17.85;34.04;93908.59;5050449;28;20438;-65
2023/02/25 11:54:16;;;;;;;6.77;4.17;;;;;;;18.29;33.80;93907.13;5052239;28;20448;-65